RJAA/NRT METAR and TAF weather

Enter ICAO airport designator
Station Type Date Time Source
RJAA METAR 2020/04/05 22:00 UTC NOAA

RJAA 052200Z 30008KT 250V330 9999 FEW020 09/M01 Q1014 NOSIG


Station Type Date Time Source
RJAA Decoded METAR 2020/04/05 22:00 UTC NOAA

New Tokyo Inter-National Airport, Japan (RJAA) 35-46N 140-23E 44M
Apr 05, 2020 - 06:00 PM EDT / 2020.04.05 2200 UTC
Wind: from the WNW (300 degrees) at 9 MPH (8 KT) (direction variable):0
Visibility: greater than 7 mile(s):0
Sky conditions: mostly clear
Temperature: 48 F (9 C)
Dew Point: 30 F (-1 C)
Relative Humidity: 49%
Pressure (altimeter): 29.94 in. Hg (1014 hPa)
ob: RJAA 052200Z 30008KT 250V330 9999 FEW020 09/M01 Q1014 NOSIG
cycle: 22

Station Type Date Time Source
RJAA TAF 2020/04/05 18:07 UTC NOAA

TAF RJAA 051705Z 0518/0700 28010KT 9999 FEW020
TEMPO 0601/0605 30018G30KT
BECMG 0609/0612 34006KT

Example: see airport list